• Join FlightAware (Why Join?)
  • Login
  • US Flag GB Flag 
22:58 EST


 

Airport Tracker/Info


-or-


 

Live Flight TrackerFlight Track Log ✈ EJA951 ✈ 19-Jul-2013 ✈ KABQ - KBZN

Flight Track Log - Related Links

Times and Time Zones

All times are in EDT time to prevent confusion due to time zone crossing. See the EJA951 flight status page for this flight to view local times or setup timezone preferences in your user account.

Time Position Orientation Groundspeed Altitude Reporting Facility
EDT Latitude Longitude Course Direction KTS MPH feet Rate Location/Type
14:11 35.0417 -106.6056 North 161 185 6,200  Level Albuquerque Center
14:13 35.1125 -106.5978 North 299 344 9,200 2,820 Climbing Albuquerque Center
14:14 35.2178 -106.6197 350° North 326 375 12,700 3,180 Climbing Albuquerque Center
14:15 35.2919 -106.7039 317° Northwest 370 426 15,800 2,580 Climbing Albuquerque Center
14:16 35.3700 -106.7956 316° Northwest 388 447 18,100 2,040 Climbing Albuquerque Center
14:17 35.4639 -106.8717 327° Northwest 412 474 20,000 1,740 Climbing Albuquerque Center
14:18 35.5692 -106.9283 336° Northwest 413 475 21,700 1,680 Climbing Albuquerque Center
14:19 35.6917 -106.9911 337° Northwest 420 483 23,500 1,500 Climbing Albuquerque Center
14:20 35.8194 -107.0558 338° Northwest 437 503 24,800 1,200 Climbing Albuquerque Center
14:21 35.9292 -107.1125 337° Northwest 445 512 26,100 1,140 Climbing Albuquerque Center
14:22 36.0475 -107.1728 338° Northwest 455 524 27,200 1,020 Climbing Albuquerque Center
14:23 36.1769 -107.2403 337° Northwest 465 535 28,300 1,080 Climbing Albuquerque Center
14:24 36.3119 -107.3106 337° Northwest 471 542 29,500 1,020 Climbing Albuquerque Center
14:25 36.4300 -107.3708 338° Northwest 476 548 30,500 1,020 Climbing Albuquerque Center
14:26 36.5483 -107.4325 337° Northwest 480 552 31,700 1,560 Climbing Albuquerque Center
14:27 36.6847 -107.5053 337° Northwest 478 550 33,800 2,040 Climbing Albuquerque Center
14:29 36.8489 -107.5906 337° Northwest 451 519 37,000 1,800 Climbing Denver Center
14:30 36.9772 -107.6564 338° Northwest 449 517 38,500 1,200 Climbing Denver Center
14:31 37.0917 -107.7183 337° Northwest 464 534 39,600 720 Climbing Denver Center
14:32 37.2297 -107.7911 337° Northwest 483 556 40,000 180 Climbing Denver Center
14:33 37.3539 -107.8592 336° Northwest 505 581 40,000  Level Denver Center
14:34 37.5036 -107.9289 340° North 514 592 40,000  Level Denver Center
14:35 37.6319 -107.9619 348° North 496 571 40,000  Level Denver Center
14:36 37.7775 -108.0056 347° North 483 556 40,000  Level Denver Center
14:37 37.9039 -108.0411 347° North 486 559 40,000  Level Denver Center
14:38 38.0517 -108.0831 347° North 489 563 40,000  Level Denver Center
14:39 38.1800 -108.1606 335° Northwest 492 566 40,000  Level Denver Center
14:40 38.2933 -108.2408 331° Northwest 488 562 40,000  Level Denver Center
14:41 38.4258 -108.3358 331° Northwest 489 563 40,000  Level Denver Center
14:42 38.5378 -108.4164 331° Northwest 482 555 40,000  Level Denver Center
14:43 38.6506 -108.4967 331° Northwest 482 555 40,000  Level Denver Center
14:44 38.7806 -108.5919 330° Northwest 481 554 40,000  Level Denver Center
14:45 38.8919 -108.6728 331° Northwest 480 552 40,000  Level Denver Center
14:46 39.0228 -108.7669 331° Northwest 480 552 40,000  Level Denver Center
14:47 39.1425 -108.8239 340° North 480 552 40,000  Level Denver Center
14:48 39.2872 -108.8756 345° North 480 552 40,000  Level Denver Center
14:49 39.4119 -108.9200 345° North 482 555 40,000  Level Denver Center
14:50 39.5367 -108.9650 344° North 479 551 40,000  Level Denver Center
14:51 39.7056 -109.0272 344° North 485 558 40,000  Level Denver Center
14:52 39.8297 -109.0692 345° North 478 550 40,000  Level Denver Center
14:54 39.9733 -109.1219 344° North 478 550 40,000  Level Denver Center
14:55 40.0961 -109.1661 345° North 477 549 40,000  Level Denver Center
14:56 40.2383 -109.2189 344° North 476 548 40,000  Level Denver Center
14:57 40.3603 -109.2631 345° North 475 547 40,000  Level Denver Center
14:58 40.5033 -109.3175 344° North 479 551 40,000  Level Denver Center
14:59 40.6258 -109.3622 345° North 479 551 40,000  Level Denver Center
15:00 40.7506 -109.4089 344° North 479 551 40,000  Level Denver Center
15:01 40.8944 -109.4619 344° North 480 552 40,000  Level Denver Center
15:02 41.0383 -109.5172 344° North 481 554 40,000  Level Denver Center
15:03 41.2028 -109.5792 344° North 482 555 40,000  Level Salt Lake Center
15:04 41.3269 -109.6272 344° North 482 555 40,000  Level Salt Lake Center
15:05 41.4522 -109.6728 345° North 483 556 40,000  Level Salt Lake Center
15:06 41.5972 -109.7294 344° North 483 556 40,000  Level Salt Lake Center
15:07 41.7217 -109.7772 344° North 483 556 40,000  Level Salt Lake Center
15:08 41.8661 -109.8319 344° North 482 555 40,000  Level Salt Lake Center
15:09 41.9892 -109.8806 344° North 481 554 40,000  Level Salt Lake Center
15:10 42.1319 -109.9364 344° North 479 551 40,000  Level Salt Lake Center
15:11 42.2531 -109.9839 344° North 475 547 40,000  Level Salt Lake Center
15:12 42.3958 -110.0411 344° North 478 550 40,000  Level Salt Lake Center
15:13 42.5172 -110.0878 344° North 473 544 40,000  Level Salt Lake Center
15:14 42.6606 -110.1389 345° North 476 548 40,000  Level Salt Lake Center
15:16 42.7931 -110.1797 347° North 474 545 40,000  Level Salt Lake Center
15:17 42.9164 -110.2181 347° North 475 547 40,000  Level Salt Lake Center
15:18 43.0592 -110.2628 347° North 472 543 40,000  Level Salt Lake Center
15:19 43.1819 -110.3014 347° North 472 543 40,000  Level Salt Lake Center
15:20 43.3161 -110.3394 348° North 473 544 40,000  Level Salt Lake Center
15:21 43.4383 -110.3781 347° North 473 544 40,000  Level Salt Lake Center
15:22 43.5689 -110.4200 347° North 470 541 40,000  Level Salt Lake Center
15:23 43.7125 -110.4642 347° North 473 544 40,000  Level Salt Lake Center
15:24 43.8364 -110.5047 347° North 476 548 40,000 -960 Level Salt Lake Center
15:25 43.9797 -110.5531 346° North 476 548 38,100 -2,220 Descending Salt Lake Center
15:26 44.1014 -110.5928 347° North 471 542 35,500 -2,760 Descending Salt Lake Center
15:27 44.2450 -110.6392 347° North 475 547 32,400 -2,820 Descending Salt Lake Center
15:28 44.3719 -110.6772 348° North 487 560 29,700 -3,000 Descending Salt Lake Center
15:29 44.5192 -110.7292 346° North 489 563 26,200 -3,360 Descending Salt Lake Center
15:30 44.6458 -110.7719 346° North 491 565 22,800 -3,600 Descending Salt Lake Center
15:31 44.7828 -110.8181 347° North 459 528 18,800 -2,820 Descending Salt Lake Center
15:32 44.8950 -110.8539 347° North 440 506 17,000 -900 Descending Salt Lake Center
15:33 45.0233 -110.8975 346° North 430 495 17,000  Level Salt Lake Center
15:34 45.1447 -110.9361 347° North 430 495 17,000 -1,260 Level Salt Lake Center
15:35 45.2594 -110.9747 347° North 427 491 14,400 -1,980 Descending Salt Lake Center
15:36 45.3622 -111.0103 346° North 391 450 13,000 -720 Descending Salt Lake Center
15:37 45.4578 -111.0314 351° North 354 407 13,000 -600 Level Salt Lake Center
15:38 45.5378 -111.0453 353° North 301 346 11,800 -2,580 Descending Salt Lake Center
15:39 45.6250 -111.0614 353° North 277 319 7,700 -2,880 Descending Salt Lake Center
15:40 45.6894 -111.0742 352° North 256 295 5,900 -1,140 Descending Salt Lake Center
15:41 45.7381 -111.0975 341° North 217 250 5,400 -660 Descending Salt Lake Center
15:42 45.7678 -111.1394 315° West 172 198 4,600 -780 Descending Salt Lake Center